sensor_id;sensor_type;location;lat;lon;timestamp;pressure;altitude;pressure_sealevel;temperature;humidity
59654;BME280;66556;52.008;5.432;2023-02-18T00:01:01;102243.0;;;15.57;89.58
59654;BME280;66556;52.008;5.432;2023-02-18T00:02:37;102245.0;;;15.58;88.87
59654;BME280;66556;52.008;5.432;2023-02-18T00:04:14;102236.0;;;15.96;87.27
59654;BME280;66556;52.008;5.432;2023-02-18T00:05:51;102243.0;;;15.98;86.76
59654;BME280;66556;52.008;5.432;2023-02-18T00:09:09;102245.0;;;15.65;87.94
59654;BME280;66556;52.008;5.432;2023-02-18T00:10:46;102243.0;;;15.5;89.41
59654;BME280;66556;52.008;5.432;2023-02-18T00:12:23;102250.0;;;15.62;88.37
59654;BME280;66556;52.008;5.432;2023-02-18T00:15:39;102247.0;;;15.05;90.76
59654;BME280;66556;52.008;5.432;2023-02-18T00:17:15;102239.0;;;15.08;91.9
59654;BME280;66556;52.008;5.432;2023-02-18T00:18:54;102236.0;;;15.3;90.9
59654;BME280;66556;52.008;5.432;2023-02-18T00:20:32;102237.0;;;15.53;89.77
59654;BME280;66556;52.008;5.432;2023-02-18T00:23:45;102241.0;;;15.48;89.61
59654;BME280;66556;52.008;5.432;2023-02-18T00:25:22;102237.0;;;15.6;89.17
59654;BME280;66556;52.008;5.432;2023-02-18T00:26:58;102230.0;;;15.31;89.29
59654;BME280;66556;52.008;5.432;2023-02-18T00:30:12;102235.0;;;15.22;90.68
59654;BME280;66556;52.008;5.432;2023-02-18T00:31:48;102234.0;;;15.44;90.11
59654;BME280;66556;52.008;5.432;2023-02-18T00:33:25;102239.0;;;15.23;90.67
59654;BME280;66556;52.008;5.432;2023-02-18T00:36:39;102233.0;;;15.46;89.31
59654;BME280;66556;52.008;5.432;2023-02-18T00:38:16;102233.0;;;15.3;90.37
59654;BME280;66556;52.008;5.432;2023-02-18T00:39:52;102226.0;;;15.3;90.43
59654;BME280;66556;52.008;5.432;2023-02-18T00:41:30;102230.0;;;15.21;90.94
59654;BME280;66556;52.008;5.432;2023-02-18T00:44:43;102223.0;;;15.26;91.34
59654;BME280;66556;52.008;5.432;2023-02-18T00:46:20;102217.0;;;15.1;91.47
59654;BME280;66556;52.008;5.432;2023-02-18T00:47:57;102216.0;;;14.78;92.95
59654;BME280;66556;52.008;5.432;2023-02-18T00:51:10;102222.0;;;14.74;92.64
59654;BME280;66556;52.008;5.432;2023-02-18T00:52:47;102213.0;;;14.79;93.21
59654;BME280;66556;52.008;5.432;2023-02-18T00:54:23;102219.0;;;14.88;92.14
59654;BME280;66556;52.008;5.432;2023-02-18T00:57:37;102216.0;;;14.86;92.12
59654;BME280;66556;52.008;5.432;2023-02-18T00:59:13;102218.0;;;14.8;92.69
59654;BME280;66556;52.008;5.432;2023-02-18T01:00:49;102210.0;;;14.85;92.39
59654;BME280;66556;52.008;5.432;2023-02-18T01:05:40;102199.0;;;14.96;90.91
59654;BME280;66556;52.008;5.432;2023-02-18T01:07:17;102198.0;;;14.74;91.88
59654;BME280;66556;52.008;5.432;2023-02-18T01:12:08;102198.0;;;14.74;92.86
59654;BME280;66556;52.008;5.432;2023-02-18T01:13:45;102197.0;;;14.55;92.72
59654;BME280;66556;52.008;5.432;2023-02-18T01:15:22;102201.0;;;14.73;92.58
59654;BME280;66556;52.008;5.432;2023-02-18T01:16:59;102200.0;;;14.79;91.78
59654;BME280;66556;52.008;5.432;2023-02-18T01:20:13;102201.0;;;14.42;93.47
59654;BME280;66556;52.008;5.432;2023-02-18T01:21:50;102200.0;;;14.6;93.5
59654;BME280;66556;52.008;5.432;2023-02-18T01:23:27;102202.0;;;14.67;92.18
59654;BME280;66556;52.008;5.432;2023-02-18T01:26:41;102202.0;;;14.98;91.71
59654;BME280;66556;52.008;5.432;2023-02-18T01:28:18;102205.0;;;14.54;93.16
59654;BME280;66556;52.008;5.432;2023-02-18T01:29:54;102203.0;;;14.8;92.43
59654;BME280;66556;52.008;5.432;2023-02-18T01:33:07;102205.0;;;14.65;92.61
59654;BME280;66556;52.008;5.432;2023-02-18T01:34:43;102210.0;;;14.92;92.1
59654;BME280;66556;52.008;5.432;2023-02-18T01:36:19;102203.0;;;14.98;91.76
59654;BME280;66556;52.008;5.432;2023-02-18T01:37:56;102198.0;;;14.77;92.26
59654;BME280;66556;52.008;5.432;2023-02-18T01:41:09;102190.0;;;14.68;93.24
59654;BME280;66556;52.008;5.432;2023-02-18T01:42:46;102188.0;;;14.7;93.0
59654;BME280;66556;52.008;5.432;2023-02-18T01:44:25;102181.0;;;14.85;92.43
59654;BME280;66556;52.008;5.432;2023-02-18T01:47:50;102172.0;;;14.78;92.85
59654;BME280;66556;52.008;5.432;2023-02-18T01:49:29;102167.0;;;14.74;92.92
59654;BME280;66556;52.008;5.432;2023-02-18T01:51:11;102165.0;;;14.59;94.14
59654;BME280;66556;52.008;5.432;2023-02-18T01:52:49;102164.0;;;14.46;94.58
59654;BME280;66556;52.008;5.432;2023-02-18T01:56:11;102163.0;;;14.78;93.89
59654;BME280;66556;52.008;5.432;2023-02-18T01:57:49;102161.0;;;14.76;94.61
59654;BME280;66556;52.008;5.432;2023-02-18T01:59:29;102158.0;;;14.57;94.77
59654;BME280;66556;52.008;5.432;2023-02-18T02:01:08;102153.0;;;14.6;94.84
59654;BME280;66556;52.008;5.432;2023-02-18T02:04:23;102153.0;;;15.07;93.44
59654;BME280;66556;52.008;5.432;2023-02-18T02:06:00;102155.0;;;15.06;92.64
59654;BME280;66556;52.008;5.432;2023-02-18T02:07:37;102151.0;;;14.66;93.79
59654;BME280;66556;52.008;5.432;2023-02-18T02:09:18;102150.0;;;15.08;93.09
59654;BME280;66556;52.008;5.432;2023-02-18T02:12:58;102148.0;;;15.16;92.28
59654;BME280;66556;52.008;5.432;2023-02-18T02:14:57;102149.0;;;15.08;92.94
59654;BME280;66556;52.008;5.432;2023-02-18T02:17:03;102147.0;;;15.03;93.68
59654;BME280;66556;52.008;5.432;2023-02-18T02:18:53;102139.0;;;15.11;93.36
59654;BME280;66556;52.008;5.432;2023-02-18T02:20:47;102140.0;;;15.0;93.51
59654;BME280;66556;52.008;5.432;2023-02-18T02:25:37;102118.0;;;14.97;94.71
59654;BME280;66556;52.008;5.432;2023-02-18T02:27:23;102121.0;;;14.98;94.58
59654;BME280;66556;52.008;5.432;2023-02-18T02:35:28;102089.0;;;15.11;94.16
59654;BME280;66556;52.008;5.432;2023-02-18T02:37:13;102080.0;;;15.46;93.95
59654;BME280;66556;52.008;5.432;2023-02-18T02:38:54;102082.0;;;15.49;92.78
59654;BME280;66556;52.008;5.432;2023-02-18T02:42:27;102073.0;;;15.3;94.19
59654;BME280;66556;52.008;5.432;2023-02-18T02:44:12;102070.0;;;15.31;94.24
59654;BME280;66556;52.008;5.432;2023-02-18T02:45:57;102060.0;;;15.39;93.96
59654;BME280;66556;52.008;5.432;2023-02-18T02:47:43;102055.0;;;15.37;93.64
59654;BME280;66556;52.008;5.432;2023-02-18T02:49:34;102051.0;;;15.26;95.11
59654;BME280;66556;52.008;5.432;2023-02-18T02:51:17;102043.0;;;15.41;95.1
59654;BME280;66556;52.008;5.432;2023-02-18T02:54:41;102043.0;;;15.46;93.93
59654;BME280;66556;52.008;5.432;2023-02-18T02:56:20;102035.0;;;15.4;94.27
59654;BME280;66556;52.008;5.432;2023-02-18T02:57:57;102034.0;;;15.39;94.9
59654;BME280;66556;52.008;5.432;2023-02-18T02:59:35;102033.0;;;15.4;94.99
59654;BME280;66556;52.008;5.432;2023-02-18T03:03:16;102037.0;;;15.16;95.38
59654;BME280;66556;52.008;5.432;2023-02-18T03:05:24;102030.0;;;15.4;95.34
59654;BME280;66556;52.008;5.432;2023-02-18T03:07:25;102019.0;;;15.23;95.96
59654;BME280;66556;52.008;5.432;2023-02-18T03:09:13;102013.0;;;15.37;95.51
59654;BME280;66556;52.008;5.432;2023-02-18T03:11:02;102007.0;;;15.31;96.06
59654;BME280;66556;52.008;5.432;2023-02-18T03:12:46;102000.0;;;15.36;95.0
59654;BME280;66556;52.008;5.432;2023-02-18T03:14:27;102002.0;;;15.67;94.07
59654;BME280;66556;52.008;5.432;2023-02-18T03:17:59;102005.0;;;15.33;95.38
59654;BME280;66556;52.008;5.432;2023-02-18T03:19:40;102000.0;;;15.35;95.56
59654;BME280;66556;52.008;5.432;2023-02-18T03:21:25;102005.0;;;15.27;95.87
59654;BME280;66556;52.008;5.432;2023-02-18T03:23:06;101999.0;;;15.64;94.76
59654;BME280;66556;52.008;5.432;2023-02-18T03:24:54;101996.0;;;15.43;93.81
59654;BME280;66556;52.008;5.432;2023-02-18T03:28:17;101989.0;;;15.53;94.8
59654;BME280;66556;52.008;5.432;2023-02-18T03:29:57;101990.0;;;15.27;96.35
59654;BME280;66556;52.008;5.432;2023-02-18T03:31:39;101989.0;;;15.18;96.7
59654;BME280;66556;52.008;5.432;2023-02-18T03:33:24;101987.0;;;15.26;95.57
59654;BME280;66556;52.008;5.432;2023-02-18T03:35:14;101980.0;;;15.08;96.76
59654;BME280;66556;52.008;5.432;2023-02-18T03:38:33;101976.0;;;15.42;95.98
59654;BME280;66556;52.008;5.432;2023-02-18T03:40:12;101968.0;;;15.36;95.94
59654;BME280;66556;52.008;5.432;2023-02-18T03:41:50;101965.0;;;15.39;95.49
59654;BME280;66556;52.008;5.432;2023-02-18T03:43:27;101965.0;;;15.58;94.86
59654;BME280;66556;52.008;5.432;2023-02-18T03:46:43;101955.0;;;15.51;95.34
59654;BME280;66556;52.008;5.432;2023-02-18T03:48:20;101952.0;;;15.53;94.97
59654;BME280;66556;52.008;5.432;2023-02-18T03:49:56;101940.0;;;15.32;95.93
59654;BME280;66556;52.008;5.432;2023-02-18T03:53:08;101938.0;;;15.5;95.85
59654;BME280;66556;52.008;5.432;2023-02-18T03:54:44;101939.0;;;15.71;95.28
59654;BME280;66556;52.008;5.432;2023-02-18T03:56:21;101930.0;;;15.37;95.96
59654;BME280;66556;52.008;5.432;2023-02-18T03:59:34;101931.0;;;15.64;95.24
59654;BME280;66556;52.008;5.432;2023-02-18T04:01:10;101926.0;;;15.22;95.58
59654;BME280;66556;52.008;5.432;2023-02-18T04:02:46;101920.0;;;15.31;97.02
59654;BME280;66556;52.008;5.432;2023-02-18T04:04:22;101920.0;;;15.38;96.59
59654;BME280;66556;52.008;5.432;2023-02-18T04:07:35;101923.0;;;15.52;96.76
59654;BME280;66556;52.008;5.432;2023-02-18T04:09:11;101912.0;;;15.19;97.56
59654;BME280;66556;52.008;5.432;2023-02-18T04:10:49;101906.0;;;15.33;98.3
59654;BME280;66556;52.008;5.432;2023-02-18T04:14:02;101911.0;;;15.44;97.18
59654;BME280;66556;52.008;5.432;2023-02-18T04:15:39;101902.0;;;15.35;98.44
59654;BME280;66556;52.008;5.432;2023-02-18T04:17:15;101905.0;;;15.37;97.84
59654;BME280;66556;52.008;5.432;2023-02-18T04:20:28;101905.0;;;15.37;98.03
59654;BME280;66556;52.008;5.432;2023-02-18T04:22:04;101911.0;;;15.48;97.94
59654;BME280;66556;52.008;5.432;2023-02-18T04:23:40;101907.0;;;15.54;97.46
59654;BME280;66556;52.008;5.432;2023-02-18T04:25:17;101907.0;;;15.31;98.12
59654;BME280;66556;52.008;5.432;2023-02-18T04:28:30;101903.0;;;15.23;99.26
59654;BME280;66556;52.008;5.432;2023-02-18T04:30:07;101894.0;;;15.24;99.15
59654;BME280;66556;52.008;5.432;2023-02-18T04:31:43;101900.0;;;15.34;98.87
59654;BME280;66556;52.008;5.432;2023-02-18T04:34:55;101905.0;;;15.14;99.24
59654;BME280;66556;52.008;5.432;2023-02-18T04:36:32;101899.0;;;14.97;99.73
59654;BME280;66556;52.008;5.432;2023-02-18T04:38:09;101901.0;;;15.38;98.68
59654;BME280;66556;52.008;5.432;2023-02-18T04:41:22;101894.0;;;15.34;98.96
59654;BME280;66556;52.008;5.432;2023-02-18T04:42:59;101899.0;;;15.23;99.08
59654;BME280;66556;52.008;5.432;2023-02-18T04:44:35;101893.0;;;15.17;98.99
59654;BME280;66556;52.008;5.432;2023-02-18T04:46:12;101897.0;;;15.28;98.95
59654;BME280;66556;52.008;5.432;2023-02-18T04:49:24;101899.0;;;15.38;97.79
59654;BME280;66556;52.008;5.432;2023-02-18T04:51:01;101893.0;;;15.5;97.97
59654;BME280;66556;52.008;5.432;2023-02-18T04:52:38;101884.0;;;15.46;97.38
59654;BME280;66556;52.008;5.432;2023-02-18T04:55:52;101873.0;;;15.69;97.32
59654;BME280;66556;52.008;5.432;2023-02-18T04:57:29;101858.0;;;15.31;97.62
59654;BME280;66556;52.008;5.432;2023-02-18T04:59:05;101862.0;;;15.34;98.15
59654;BME280;66556;52.008;5.432;2023-02-18T05:02:17;101855.0;;;14.95;99.22
59654;BME280;66556;52.008;5.432;2023-02-18T05:03:53;101859.0;;;15.33;97.78
59654;BME280;66556;52.008;5.432;2023-02-18T05:05:30;101848.0;;;15.16;98.48
59654;BME280;66556;52.008;5.432;2023-02-18T05:07:06;101853.0;;;15.07;98.61
59654;BME280;66556;52.008;5.432;2023-02-18T05:10:18;101847.0;;;15.36;97.75
59654;BME280;66556;52.008;5.432;2023-02-18T05:11:54;101835.0;;;15.48;95.86
59654;BME280;66556;52.008;5.432;2023-02-18T05:13:30;101842.0;;;15.58;96.07
59654;BME280;66556;52.008;5.432;2023-02-18T05:16:44;101843.0;;;15.51;95.87
59654;BME280;66556;52.008;5.432;2023-02-18T05:18:21;101848.0;;;15.56;95.94
59654;BME280;66556;52.008;5.432;2023-02-18T05:19:57;101852.0;;;15.73;94.76
59654;BME280;66556;52.008;5.432;2023-02-18T05:23:09;101853.0;;;15.15;96.34
59654;BME280;66556;52.008;5.432;2023-02-18T05:24:45;101857.0;;;15.27;97.42
59654;BME280;66556;52.008;5.432;2023-02-18T05:26:21;101861.0;;;15.18;97.17
59654;BME280;66556;52.008;5.432;2023-02-18T05:29:34;101861.0;;;15.16;97.74
59654;BME280;66556;52.008;5.432;2023-02-18T05:31:11;101858.0;;;15.26;97.14
59654;BME280;66556;52.008;5.432;2023-02-18T05:32:47;101855.0;;;15.6;94.92
59654;BME280;66556;52.008;5.432;2023-02-18T05:34:23;101855.0;;;15.3;95.95
59654;BME280;66556;52.008;5.432;2023-02-18T05:37:35;101831.0;;;15.64;94.85
59654;BME280;66556;52.008;5.432;2023-02-18T05:39:11;101847.0;;;15.58;94.43
59654;BME280;66556;52.008;5.432;2023-02-18T05:40:47;101838.0;;;15.36;95.28
59654;BME280;66556;52.008;5.432;2023-02-18T05:44:32;101838.0;;;15.02;96.52
59654;BME280;66556;52.008;5.432;2023-02-18T05:46:09;101836.0;;;15.1;95.75
59654;BME280;66556;52.008;5.432;2023-02-18T05:47:45;101837.0;;;15.17;96.53
59654;BME280;66556;52.008;5.432;2023-02-18T05:49:21;101830.0;;;15.04;95.57
59654;BME280;66556;52.008;5.432;2023-02-18T05:52:34;101821.0;;;15.25;95.35
59654;BME280;66556;52.008;5.432;2023-02-18T05:54:10;101825.0;;;14.89;96.95
59654;BME280;66556;52.008;5.432;2023-02-18T05:55:46;101816.0;;;15.12;96.2
59654;BME280;66556;52.008;5.432;2023-02-18T05:57:22;101822.0;;;14.81;97.64
59654;BME280;66556;52.008;5.432;2023-02-18T06:00:36;101830.0;;;15.05;97.09
59654;BME280;66556;52.008;5.432;2023-02-18T06:02:12;101828.0;;;15.1;96.99
59654;BME280;66556;52.008;5.432;2023-02-18T06:03:48;101831.0;;;15.04;96.69
59654;BME280;66556;52.008;5.432;2023-02-18T06:07:00;101824.0;;;15.05;96.17
59654;BME280;66556;52.008;5.432;2023-02-18T06:08:36;101810.0;;;15.2;96.31
59654;BME280;66556;52.008;5.432;2023-02-18T06:10:13;101805.0;;;15.27;95.09
59654;BME280;66556;52.008;5.432;2023-02-18T06:13:25;101810.0;;;15.04;96.81
59654;BME280;66556;52.008;5.432;2023-02-18T06:15:01;101812.0;;;14.99;97.45
59654;BME280;66556;52.008;5.432;2023-02-18T06:16:37;101819.0;;;15.26;95.22
59654;BME280;66556;52.008;5.432;2023-02-18T06:18:13;101825.0;;;14.95;97.18
59654;BME280;66556;52.008;5.432;2023-02-18T06:21:26;101819.0;;;15.14;95.62
59654;BME280;66556;52.008;5.432;2023-02-18T06:23:01;101826.0;;;15.23;95.48
59654;BME280;66556;52.008;5.432;2023-02-18T06:24:38;101822.0;;;15.25;95.99
59654;BME280;66556;52.008;5.432;2023-02-18T06:27:50;101828.0;;;15.37;95.43
59654;BME280;66556;52.008;5.432;2023-02-18T06:29:29;101826.0;;;15.41;94.09
59654;BME280;66556;52.008;5.432;2023-02-18T06:31:05;101825.0;;;15.45;93.59
59654;BME280;66556;52.008;5.432;2023-02-18T06:34:18;101826.0;;;15.33;94.57
59654;BME280;66556;52.008;5.432;2023-02-18T06:35:56;101823.0;;;15.18;95.75
59654;BME280;66556;52.008;5.432;2023-02-18T06:37:33;101831.0;;;15.04;96.87
59654;BME280;66556;52.008;5.432;2023-02-18T06:39:09;101830.0;;;15.16;96.16
59654;BME280;66556;52.008;5.432;2023-02-18T06:42:22;101836.0;;;15.19;95.95
59654;BME280;66556;52.008;5.432;2023-02-18T06:43:59;101824.0;;;15.3;95.13
59654;BME280;66556;52.008;5.432;2023-02-18T06:45:37;101831.0;;;15.49;94.29
59654;BME280;66556;52.008;5.432;2023-02-18T06:48:50;101830.0;;;15.0;96.4
59654;BME280;66556;52.008;5.432;2023-02-18T06:50:27;101824.0;;;15.21;95.85
59654;BME280;66556;52.008;5.432;2023-02-18T06:52:03;101819.0;;;14.92;96.63
59654;BME280;66556;52.008;5.432;2023-02-18T06:55:16;101821.0;;;14.91;96.07
59654;BME280;66556;52.008;5.432;2023-02-18T06:56:52;101830.0;;;15.22;95.81
59654;BME280;66556;52.008;5.432;2023-02-18T06:58:29;101835.0;;;15.16;96.53
59654;BME280;66556;52.008;5.432;2023-02-18T07:00:06;101832.0;;;15.03;95.93
59654;BME280;66556;52.008;5.432;2023-02-18T07:03:19;101826.0;;;15.2;95.02
59654;BME280;66556;52.008;5.432;2023-02-18T07:04:55;101830.0;;;14.98;96.09
59654;BME280;66556;52.008;5.432;2023-02-18T07:06:31;101831.0;;;15.32;94.92
59654;BME280;66556;52.008;5.432;2023-02-18T07:09:44;101824.0;;;15.18;95.3
59654;BME280;66556;52.008;5.432;2023-02-18T07:11:21;101820.0;;;15.16;95.06
59654;BME280;66556;52.008;5.432;2023-02-18T07:12:57;101816.0;;;14.97;95.26
59654;BME280;66556;52.008;5.432;2023-02-18T07:16:10;101809.0;;;15.23;94.97
59654;BME280;66556;52.008;5.432;2023-02-18T07:17:46;101819.0;;;15.1;94.53
59654;BME280;66556;52.008;5.432;2023-02-18T07:19:22;101820.0;;;15.12;93.98
59654;BME280;66556;52.008;5.432;2023-02-18T07:20:58;101816.0;;;14.76;95.01
59654;BME280;66556;52.008;5.432;2023-02-18T07:24:11;101831.0;;;14.99;95.29
59654;BME280;66556;52.008;5.432;2023-02-18T07:25:47;101815.0;;;15.35;93.17
59654;BME280;66556;52.008;5.432;2023-02-18T07:27:23;101818.0;;;15.09;93.83
59654;BME280;66556;52.008;5.432;2023-02-18T07:30:37;101827.0;;;15.09;94.1
59654;BME280;66556;52.008;5.432;2023-02-18T07:32:14;101826.0;;;14.94;94.43
59654;BME280;66556;52.008;5.432;2023-02-18T07:33:52;101822.0;;;14.95;95.12
59654;BME280;66556;52.008;5.432;2023-02-18T07:37:08;101824.0;;;15.03;94.55
59654;BME280;66556;52.008;5.432;2023-02-18T07:38:45;101826.0;;;15.04;94.58
59654;BME280;66556;52.008;5.432;2023-02-18T07:40:21;101835.0;;;14.75;95.06
59654;BME280;66556;52.008;5.432;2023-02-18T07:41:57;101834.0;;;15.09;93.75
59654;BME280;66556;52.008;5.432;2023-02-18T07:45:10;101824.0;;;14.42;95.68
59654;BME280;66556;52.008;5.432;2023-02-18T07:46:46;101821.0;;;14.6;95.05
59654;BME280;66556;52.008;5.432;2023-02-18T07:48:23;101830.0;;;14.79;94.09
59654;BME280;66556;52.008;5.432;2023-02-18T07:51:35;101822.0;;;14.68;94.0
59654;BME280;66556;52.008;5.432;2023-02-18T07:53:11;101826.0;;;14.9;92.55
59654;BME280;66556;52.008;5.432;2023-02-18T07:54:50;101818.0;;;14.72;93.55
59654;BME280;66556;52.008;5.432;2023-02-18T07:58:02;101817.0;;;14.54;93.07
59654;BME280;66556;52.008;5.432;2023-02-18T07:59:38;101822.0;;;14.77;92.4
59654;BME280;66556;52.008;5.432;2023-02-18T08:01:15;101813.0;;;14.76;91.93
59654;BME280;66556;52.008;5.432;2023-02-18T08:02:52;101820.0;;;14.57;91.92
59654;BME280;66556;52.008;5.432;2023-02-18T08:06:04;101823.0;;;14.84;90.33
59654;BME280;66556;52.008;5.432;2023-02-18T08:07:41;101822.0;;;14.82;90.48
59654;BME280;66556;52.008;5.432;2023-02-18T08:09:17;101828.0;;;15.03;89.34
59654;BME280;66556;52.008;5.432;2023-02-18T08:12:34;101830.0;;;15.21;88.74
59654;BME280;66556;52.008;5.432;2023-02-18T08:14:11;101832.0;;;15.21;88.44
59654;BME280;66556;52.008;5.432;2023-02-18T08:15:47;101834.0;;;14.93;89.0
59654;BME280;66556;52.008;5.432;2023-02-18T08:19:01;101831.0;;;14.95;88.44
59654;BME280;66556;52.008;5.432;2023-02-18T08:20:39;101836.0;;;15.31;87.37
59654;BME280;66556;52.008;5.432;2023-02-18T08:22:15;101840.0;;;15.03;87.82
59654;BME280;66556;52.008;5.432;2023-02-18T08:23:51;101844.0;;;14.9;88.33
59654;BME280;66556;52.008;5.432;2023-02-18T08:27:05;101840.0;;;14.83;87.91
59654;BME280;66556;52.008;5.432;2023-02-18T08:28:41;101845.0;;;14.66;89.37
59654;BME280;66556;52.008;5.432;2023-02-18T08:30:18;101841.0;;;14.67;88.69
59654;BME280;66556;52.008;5.432;2023-02-18T08:33:32;101840.0;;;14.85;88.48
59654;BME280;66556;52.008;5.432;2023-02-18T08:35:10;101851.0;;;15.16;87.37
59654;BME280;66556;52.008;5.432;2023-02-18T08:36:46;101852.0;;;14.75;88.18
59654;BME280;66556;52.008;5.432;2023-02-18T08:38:23;101851.0;;;14.44;89.42
59654;BME280;66556;52.008;5.432;2023-02-18T08:41:36;101839.0;;;15.02;87.32
59654;BME280;66556;52.008;5.432;2023-02-18T08:43:14;101846.0;;;14.74;87.67
59654;BME280;66556;52.008;5.432;2023-02-18T08:44:51;101855.0;;;15.0;86.97
59654;BME280;66556;52.008;5.432;2023-02-18T08:48:04;101850.0;;;15.22;86.11
59654;BME280;66556;52.008;5.432;2023-02-18T08:49:40;101857.0;;;14.83;86.36
59654;BME280;66556;52.008;5.432;2023-02-18T08:51:19;101852.0;;;14.74;87.93
59654;BME280;66556;52.008;5.432;2023-02-18T08:54:37;101859.0;;;14.77;88.09
59654;BME280;66556;52.008;5.432;2023-02-18T08:56:14;101860.0;;;14.88;87.91
59654;BME280;66556;52.008;5.432;2023-02-18T08:57:51;101855.0;;;14.79;88.29
59654;BME280;66556;52.008;5.432;2023-02-18T08:59:27;101856.0;;;14.69;88.35
59654;BME280;66556;52.008;5.432;2023-02-18T09:02:43;101846.0;;;14.54;90.01
59654;BME280;66556;52.008;5.432;2023-02-18T09:04:20;101847.0;;;14.79;88.81
59654;BME280;66556;52.008;5.432;2023-02-18T09:05:58;101844.0;;;15.11;87.22
59654;BME280;66556;52.008;5.432;2023-02-18T09:09:12;101850.0;;;14.55;89.37
59654;BME280;66556;52.008;5.432;2023-02-18T09:10:48;101850.0;;;14.33;90.72
59654;BME280;66556;52.008;5.432;2023-02-18T09:12:24;101851.0;;;14.59;90.46
59654;BME280;66556;52.008;5.432;2023-02-18T09:14:02;101856.0;;;14.94;89.12
59654;BME280;66556;52.008;5.432;2023-02-18T09:17:14;101862.0;;;14.64;89.33
59654;BME280;66556;52.008;5.432;2023-02-18T09:18:50;101860.0;;;14.64;89.34
59654;BME280;66556;52.008;5.432;2023-02-18T09:20:27;101851.0;;;14.77;88.89
59654;BME280;66556;52.008;5.432;2023-02-18T09:23:39;101863.0;;;14.75;88.49
59654;BME280;66556;52.008;5.432;2023-02-18T09:25:15;101860.0;;;14.66;88.04
59654;BME280;66556;52.008;5.432;2023-02-18T09:26:51;101860.0;;;14.86;87.32
59654;BME280;66556;52.008;5.432;2023-02-18T09:30:05;101869.0;;;14.8;87.52
59654;BME280;66556;52.008;5.432;2023-02-18T09:31:42;101860.0;;;14.76;87.4
59654;BME280;66556;52.008;5.432;2023-02-18T09:33:19;101876.0;;;14.79;85.97
59654;BME280;66556;52.008;5.432;2023-02-18T09:34:55;101874.0;;;15.12;85.42
59654;BME280;66556;52.008;5.432;2023-02-18T09:38:09;101869.0;;;14.85;85.49
59654;BME280;66556;52.008;5.432;2023-02-18T09:39:48;101870.0;;;15.03;84.84
59654;BME280;66556;52.008;5.432;2023-02-18T09:41:31;101876.0;;;15.03;84.87
59654;BME280;66556;52.008;5.432;2023-02-18T09:43:23;101878.0;;;15.3;83.85
59654;BME280;66556;52.008;5.432;2023-02-18T09:46:50;101875.0;;;15.3;83.97
59654;BME280;66556;52.008;5.432;2023-02-18T09:48:31;101880.0;;;15.43;83.6
59654;BME280;66556;52.008;5.432;2023-02-18T09:50:16;101883.0;;;15.24;83.48
59654;BME280;66556;52.008;5.432;2023-02-18T09:52:02;101877.0;;;14.98;84.26
59654;BME280;66556;52.008;5.432;2023-02-18T09:53:42;101887.0;;;15.01;84.61
59654;BME280;66556;52.008;5.432;2023-02-18T09:57:00;101884.0;;;15.1;84.15
59654;BME280;66556;52.008;5.432;2023-02-18T09:58:38;101885.0;;;14.77;84.26
59654;BME280;66556;52.008;5.432;2023-02-18T10:00:19;101887.0;;;15.03;84.85
59654;BME280;66556;52.008;5.432;2023-02-18T10:03:36;101895.0;;;15.06;83.36
59654;BME280;66556;52.008;5.432;2023-02-18T10:06:52;101881.0;;;15.0;84.08
59654;BME280;66556;52.008;5.432;2023-02-18T10:08:31;101890.0;;;15.0;84.48
59654;BME280;66556;52.008;5.432;2023-02-18T10:11:57;101881.0;;;15.01;84.6
59654;BME280;66556;52.008;5.432;2023-02-18T10:13:40;101889.0;;;15.21;83.12
59654;BME280;66556;52.008;5.432;2023-02-18T10:15:20;101881.0;;;15.09;84.32
59654;BME280;66556;52.008;5.432;2023-02-18T10:16:58;101874.0;;;15.25;83.71
59654;BME280;66556;52.008;5.432;2023-02-18T10:20:23;101884.0;;;15.27;83.85
59654;BME280;66556;52.008;5.432;2023-02-18T10:22:01;101880.0;;;15.43;83.51
59654;BME280;66556;52.008;5.432;2023-02-18T10:23:41;101888.0;;;15.14;84.42
59654;BME280;66556;52.008;5.432;2023-02-18T10:25:30;101887.0;;;15.17;84.46
59654;BME280;66556;52.008;5.432;2023-02-18T10:27:15;101894.0;;;15.29;83.54
59654;BME280;66556;52.008;5.432;2023-02-18T10:30:39;101891.0;;;15.55;83.58
59654;BME280;66556;52.008;5.432;2023-02-18T10:32:21;101901.0;;;15.39;83.57
59654;BME280;66556;52.008;5.432;2023-02-18T10:34:02;101899.0;;;15.26;84.31
59654;BME280;66556;52.008;5.432;2023-02-18T10:35:47;101896.0;;;15.58;83.26
59654;BME280;66556;52.008;5.432;2023-02-18T10:39:41;101905.0;;;15.46;82.45
59654;BME280;66556;52.008;5.432;2023-02-18T10:41:28;101912.0;;;15.75;82.66
59654;BME280;66556;52.008;5.432;2023-02-18T10:43:16;101910.0;;;15.8;81.41
59654;BME280;66556;52.008;5.432;2023-02-18T10:45:04;101907.0;;;15.7;81.83
59654;BME280;66556;52.008;5.432;2023-02-18T10:46:53;101910.0;;;15.51;83.35
59654;BME280;66556;52.008;5.432;2023-02-18T10:48:50;101910.0;;;15.72;82.84
59654;BME280;66556;52.008;5.432;2023-02-18T10:50:36;101913.0;;;15.75;82.69
59654;BME280;66556;52.008;5.432;2023-02-18T10:53:54;101915.0;;;15.27;84.83
59654;BME280;66556;52.008;5.432;2023-02-18T10:55:35;101915.0;;;15.41;84.44
59654;BME280;66556;52.008;5.432;2023-02-18T10:57:17;101907.0;;;15.51;83.16
59654;BME280;66556;52.008;5.432;2023-02-18T10:59:00;101908.0;;;15.8;83.34
59654;BME280;66556;52.008;5.432;2023-02-18T11:00:40;101908.0;;;15.71;83.41
59654;BME280;66556;52.008;5.432;2023-02-18T11:04:04;101910.0;;;15.79;82.92
59654;BME280;66556;52.008;5.432;2023-02-18T11:05:44;101905.0;;;16.09;81.83
59654;BME280;66556;52.008;5.432;2023-02-18T11:07:24;101905.0;;;16.12;82.28
59654;BME280;66556;52.008;5.432;2023-02-18T11:09:01;101896.0;;;16.07;82.07
59654;BME280;66556;52.008;5.432;2023-02-18T11:12:21;101910.0;;;15.7;83.54
59654;BME280;66556;52.008;5.432;2023-02-18T11:14:00;101907.0;;;15.87;82.94
59654;BME280;66556;52.008;5.432;2023-02-18T11:15:53;101890.0;;;15.88;83.13
59654;BME280;66556;52.008;5.432;2023-02-18T11:17:33;101895.0;;;16.09;82.38
59654;BME280;66556;52.008;5.432;2023-02-18T11:21:21;101899.0;;;15.99;81.91